Mountain Lake Park, Maryland
Current Conditions -  °F | °C
As of 12:00 PM on Saturday 25 Oct 2014 (Local Time) from K2G4 Reporting Station
Scattered Clouds Scattered Clouds  
Wind Chill: 54°   Ceiling: Unl
Heat Index: 54°   Visibility: 10mi
Dew Point: 43°   Wind: 10mph
Humidity: 67%   Direction: 250°WSW
Pressure: 29.95"   Gusts: 20mph
Location:  39.3804°N, 79.3888°W
Report Text: K2G4 251600Z AUTO 25009G17KT 222V292 10SM SCT018 12/06 A2995 RMK AO1
Loading
Personal Weather Stations






























Interactive Weather Map
Tropical Storm Tracking
New forecast layout! Learn more

10-Day Weather Forecast

Advertisements
Track Severe Weather on mobile